Time;durP1;ratioP1;P1;durP2;ratioP2;P2;SDS_P1;SDS_P2;PMS_P1;PMS_P2;Temp;Humidity;BMP_temperature;BMP_pressure;BME280_temperature;BME280_humidity;BME280_pressure;Samples;Min_cycle;Max_cycle;Signal;HPM_P1;HPM_P2
2022/01/20 00:03:31;;;;;;;;;;;;;;;2.26;73.12;100404.00;4995511;28;19926;-87
2022/01/20 04:11:03;;;;;;;;;;;;;;;3.84;98.07;100508.53;5033791;23;19929;-86
2022/01/20 04:13:30;;;;;;;;;;;;;;;3.74;97.11;100508.53;5024695;28;19929;-84
2022/01/20 04:15:59;;;;;;;;;;;;;;;3.68;96.61;100500.69;5024710;28;19917;-85
2022/01/20 04:18:26;;;;;;;;;;;;;;;3.56;96.16;100503.38;5023705;28;20292;-85
2022/01/20 04:20:51;;;;;;;;;;;;;;;3.58;95.87;100499.00;5024415;28;20392;-85
2022/01/20 04:23:17;;;;;;;;;;;;;;;3.49;95.48;100506.88;5025225;28;20004;-87
2022/01/20 04:25:42;;;;;;;;;;;;;;;3.44;95.37;100499.03;5023200;28;19921;-87
2022/01/20 04:28:08;;;;;;;;;;;;;;;3.35;95.11;100504.28;5024676;28;19923;-87
2022/01/20 04:30:33;;;;;;;;;;;;;;;3.35;95.01;100510.41;5006733;28;20383;-86
2022/01/20 04:32:58;;;;;;;;;;;;;;;3.31;94.70;100515.66;5024177;28;19927;-86
2022/01/20 04:35:24;;;;;;;;;;;;;;;3.26;94.47;100508.66;5006488;28;19932;-86
2022/01/20 04:37:50;;;;;;;;;;;;;;;3.23;94.50;100510.41;5006785;28;19921;-86
2022/01/20 04:40:16;;;;;;;;;;;;;;;3.16;94.31;100503.44;5022743;28;19917;-86
2022/01/20 04:42:44;;;;;;;;;;;;;;;3.17;94.15;100508.66;5024086;28;19928;-86
2022/01/20 04:45:13;;;;;;;;;;;;;;;3.11;94.07;100508.66;5006926;28;19921;-85
2022/01/20 04:47:49;;;;;;;;;;;;;;;3.07;94.07;100509.56;5023972;28;19921;-85
2022/01/20 04:58:27;;;;;;;;;;;;;;;2.97;93.69;100508.69;5023849;28;19964;-85
2022/01/20 05:00:52;;;;;;;;;;;;;;;2.95;93.52;100499.94;5023549;28;19925;-85
2022/01/20 05:03:17;;;;;;;;;;;;;;;2.92;93.36;100494.75;5023842;28;19917;-85
2022/01/20 05:05:43;;;;;;;;;;;;;;;2.89;93.03;100497.34;5023721;28;20326;-85
2022/01/20 05:08:08;;;;;;;;;;;;;;;2.93;92.86;100495.59;5023491;28;19922;-85
2022/01/20 05:10:34;;;;;;;;;;;;;;;2.80;92.75;100494.72;5022087;28;19976;-86
2022/01/20 05:13:08;;;;;;;;;;;;;;;2.73;92.87;100501.72;5023672;28;19924;-86
2022/01/20 05:15:33;;;;;;;;;;;;;;;2.75;92.34;100496.47;5023383;28;19943;-85
2022/01/20 05:17:59;;;;;;;;;;;;;;;2.72;92.17;100503.44;5023326;28;19921;-86
2022/01/20 05:20:24;;;;;;;;;;;;;;;2.71;91.81;100499.09;5023342;28;19921;-85
2022/01/20 05:22:50;;;;;;;;;;;;;;;2.71;91.41;100496.47;5023602;28;19917;-85
2022/01/20 05:25:15;;;;;;;;;;;;;;;2.66;91.13;100485.09;5022234;28;19970;-85
2022/01/20 05:27:40;;;;;;;;;;;;;;;2.61;90.98;100479.00;5023088;28;19918;-86
2022/01/20 08:38:17;;;;;;;;;;;;;;;1.37;81.97;100668.41;5856336;23;19934;-88
2022/01/20 08:40:43;;;;;;;;;;;;;;;1.33;81.88;100679.66;4953697;29;19922;-86
2022/01/20 08:43:08;;;;;;;;;;;;;;;1.38;81.95;100683.19;4955473;28;20009;-86
2022/01/20 08:45:35;;;;;;;;;;;;;;;1.35;81.98;100682.28;4956488;28;19919;-88
2022/01/20 08:48:01;;;;;;;;;;;;;;;1.35;81.90;100682.28;4939258;29;20337;-90
2022/01/20 08:50:27;;;;;;;;;;;;;;;1.35;82.01;100685.78;4955730;29;20061;-87
2022/01/20 08:52:53;;;;;;;;;;;;;;;1.38;82.00;100682.31;4955060;28;19926;-90
2022/01/20 08:55:19;;;;;;;;;;;;;;;1.39;82.05;100684.09;4956289;29;19922;-88
2022/01/20 08:57:45;;;;;;;;;;;;;;;1.38;82.14;100687.56;4955795;28;19922;-87
2022/01/20 09:00:11;;;;;;;;;;;;;;;1.39;82.08;100678.88;4939235;29;19926;-90
2022/01/20 09:02:36;;;;;;;;;;;;;;;1.40;82.19;100675.38;4939237;29;20277;-90
2022/01/20 09:05:03;;;;;;;;;;;;;;;1.40;82.18;100680.59;4939100;29;19919;-88
2022/01/20 09:07:28;;;;;;;;;;;;;;;1.40;82.05;100685.81;4936925;29;19919;-89
2022/01/20 09:09:55;;;;;;;;;;;;;;;1.39;81.72;100676.25;4938760;29;19953;-89
2022/01/20 09:17:44;;;;;;;;;;;;;;;1.35;81.47;100682.28;4955338;28;19925;-88
2022/01/20 09:20:09;;;;;;;;;;;;;;;1.34;81.28;100686.66;4946040;29;20270;-91
2022/01/20 09:22:35;;;;;;;;;;;;;;;1.37;81.18;100680.56;4936761;28;19919;-89
2022/01/20 09:25:00;;;;;;;;;;;;;;;1.36;81.27;100678.84;4955453;29;19931;-89
2022/01/20 09:27:25;;;;;;;;;;;;;;;1.38;81.13;100677.09;4938669;29;20002;-91
2022/01/20 09:29:51;;;;;;;;;;;;;;;1.39;81.21;100678.88;4954300;28;20416;-92
2022/01/20 09:32:18;;;;;;;;;;;;;;;1.33;81.12;100684.91;4938787;29;19978;-91
2022/01/20 09:34:43;;;;;;;;;;;;;;;1.37;80.94;100675.34;4938536;29;19919;-90
2022/01/20 09:37:09;;;;;;;;;;;;;;;1.41;80.68;100677.13;4938164;29;19973;-87
2022/01/20 09:39:37;;;;;;;;;;;;;;;1.37;81.14;100680.56;4937815;28;19927;-91
2022/01/20 09:42:03;;;;;;;;;;;;;;;1.43;81.08;100681.50;4955109;28;20025;-89
2022/01/20 09:44:28;;;;;;;;;;;;;;;1.40;80.94;100686.69;4954517;28;20354;-88
2022/01/20 09:46:54;;;;;;;;;;;;;;;1.47;81.05;100678.91;4954799;28;19922;-91
2022/01/20 09:49:20;;;;;;;;;;;;;;;1.40;80.97;100675.38;4937198;29;19918;-88
2022/01/20 09:51:45;;;;;;;;;;;;;;;1.40;80.36;100688.44;4937885;28;20114;-89
2022/01/20 09:54:11;;;;;;;;;;;;;;;1.43;80.12;100685.84;4954199;28;19996;-87
2022/01/20 09:56:37;;;;;;;;;;;;;;;1.42;80.41;100694.53;4954834;28;19926;-89
2022/01/20 09:59:03;;;;;;;;;;;;;;;1.44;80.21;100701.53;4937705;29;19982;-88
2022/01/20 10:01:43;;;;;;;;;;;;;;;1.43;79.90;100707.59;4937612;29;19918;-91
2022/01/20 10:04:29;;;;;;;;;;;;;;;1.42;79.72;100704.97;4937867;29;19958;-89
2022/01/20 10:06:55;;;;;;;;;;;;;;;1.48;79.84;100706.78;4954774;28;20418;-88
2022/01/20 10:09:27;;;;;;;;;;;;;;;1.51;79.80;100702.47;4936762;29;20037;-88
2022/01/20 10:11:52;;;;;;;;;;;;;;;1.55;79.46;100704.25;4937963;29;19919;-91
2022/01/20 10:14:17;;;;;;;;;;;;;;;1.58;79.53;100712.13;4955238;29;20001;-90
2022/01/20 10:16:43;;;;;;;;;;;;;;;1.55;79.21;100712.09;4955167;28;19919;-91
2022/01/20 10:19:08;;;;;;;;;;;;;;;1.54;79.05;100720.78;4937763;29;20097;-88
2022/01/20 10:21:34;;;;;;;;;;;;;;;1.57;78.86;100723.41;4954632;28;19922;-90
2022/01/20 10:24:12;;;;;;;;;;;;;;;1.58;78.67;100724.28;4953123;28;19923;-88
2022/01/20 10:26:39;;;;;;;;;;;;;;;1.59;78.53;100721.69;4952154;28;19919;-88
2022/01/20 10:29:15;;;;;;;;;;;;;;;1.57;78.46;100728.63;4936253;29;20322;-89
2022/01/20 10:31:40;;;;;;;;;;;;;;;1.63;78.54;100736.53;4953580;28;19982;-89
2022/01/20 10:34:30;;;;;;;;;;;;;;;1.65;78.58;100733.06;4954410;28;19919;-92
2022/01/20 10:36:59;;;;;;;;;;;;;;;1.63;78.46;100740.91;4953574;28;19957;-91
2022/01/20 10:39:34;;;;;;;;;;;;;;;1.63;78.21;100736.53;4934476;29;19926;-88
2022/01/20 10:42:05;;;;;;;;;;;;;;;1.66;78.13;100740.94;4953948;28;20297;-87
2022/01/20 10:44:59;;;;;;;;;;;;;;;1.61;77.84;100743.50;4937577;29;19954;-87
2022/01/20 10:47:26;;;;;;;;;;;;;;;1.68;77.83;100746.16;4940499;28;19969;-88
2022/01/20 10:49:52;;;;;;;;;;;;;;;1.67;77.53;100744.41;4953997;28;19926;-88
2022/01/20 10:52:22;;;;;;;;;;;;;;;1.67;77.75;100744.41;4935921;29;19946;-91
2022/01/20 10:54:52;;;;;;;;;;;;;;;1.71;77.45;100738.31;4953882;28;19950;-87
2022/01/20 10:57:24;;;;;;;;;;;;;;;1.67;77.24;100731.34;4937252;29;19993;-87
2022/01/20 11:00:19;;;;;;;;;;;;;;;1.66;77.14;100729.56;4953905;28;19926;-91
2022/01/20 11:02:48;;;;;;;;;;;;;;;1.68;76.79;100727.88;4952028;28;19926;-92
2022/01/20 11:05:15;;;;;;;;;;;;;;;1.69;76.69;100730.50;4954142;28;19919;-90
2022/01/20 11:07:42;;;;;;;;;;;;;;;1.71;76.64;100722.66;4953067;28;20185;-91
2022/01/20 11:10:09;;;;;;;;;;;;;;;1.71;76.80;100717.41;4936266;28;20429;-88
2022/01/20 11:12:35;;;;;;;;;;;;;;;1.72;76.57;100722.66;4953778;28;20274;-88
2022/01/20 11:15:01;;;;;;;;;;;;;;;1.71;76.64;100712.19;4954599;28;19977;-90
2022/01/20 11:17:30;;;;;;;;;;;;;;;1.71;76.23;100733.09;4937209;29;19945;-92
2022/01/20 11:20:08;;;;;;;;;;;;;;;1.73;76.08;100720.94;4935895;28;19925;-89
2022/01/20 11:22:34;;;;;;;;;;;;;;;1.75;76.02;100724.44;4943937;28;19925;-88
2022/01/20 11:25:04;;;;;;;;;;;;;;;1.73;75.60;100723.56;4936855;28;19922;-89
2022/01/20 11:27:43;;;;;;;;;;;;;;;1.74;75.79;100727.91;4953289;28;19922;-90
2022/01/20 11:30:18;;;;;;;;;;;;;;;1.79;75.86;100726.22;4935994;29;19926;-88
2022/01/20 11:32:46;;;;;;;;;;;;;;;1.79;75.98;100723.59;4936526;29;19930;-91
2022/01/20 11:35:13;;;;;;;;;;;;;;;1.76;75.77;100726.19;4937171;29;19927;-88
2022/01/20 11:37:54;;;;;;;;;;;;;;;1.82;75.96;100731.47;4952789;28;19954;-91
2022/01/20 11:40:21;;;;;;;;;;;;;;;1.81;75.84;100734.94;4935607;29;20029;-90
2022/01/20 11:43:09;;;;;;;;;;;;;;;1.84;75.93;100740.19;4936211;28;19919;-88
2022/01/20 11:45:35;;;;;;;;;;;;;;;1.87;75.66;100736.72;4936856;29;19962;-90
2022/01/20 11:48:11;;;;;;;;;;;;;;;1.86;75.67;100738.47;4935601;28;19933;-89
2022/01/20 11:50:37;;;;;;;;;;;;;;;1.86;75.74;100741.06;4935995;29;19926;-90
2022/01/20 11:53:16;;;;;;;;;;;;;;;1.87;75.59;100735.00;4951454;28;19929;-88
2022/01/20 11:55:43;;;;;;;;;;;;;;;1.90;75.49;100732.41;4936758;29;19923;-91
2022/01/20 11:58:09;;;;;;;;;;;;;;;1.93;75.31;100737.66;4953843;28;19919;-92
2022/01/20 12:00:34;;;;;;;;;;;;;;;1.89;75.07;100728.03;4953626;28;20033;-89
2022/01/20 12:03:08;;;;;;;;;;;;;;;1.92;74.76;100735.91;4936455;28;20418;-87
2022/01/20 12:05:35;;;;;;;;;;;;;;;1.96;74.75;100731.56;4953006;28;20448;-87
2022/01/20 12:08:05;;;;;;;;;;;;;;;1.92;74.40;100733.28;4938036;28;19957;-88
2022/01/20 12:10:30;;;;;;;;;;;;;;;1.97;74.40;100739.41;4939894;29;19919;-92
2022/01/20 12:13:09;;;;;;;;;;;;;;;1.97;74.08;100722.88;4956721;28;19926;-88
2022/01/20 12:15:45;;;;;;;;;;;;;;;1.95;73.63;100730.69;4956385;28;19929;-88
2022/01/20 12:18:13;;;;;;;;;;;;;;;1.98;73.36;100728.09;4939881;28;19918;-89
2022/01/20 12:20:38;;;;;;;;;;;;;;;1.94;73.22;100734.16;4957124;28;20449;-92
2022/01/20 12:23:03;;;;;;;;;;;;;;;1.97;73.05;100741.16;4956072;28;19923;-91
2022/01/20 12:25:29;;;;;;;;;;;;;;;2.02;73.04;100743.81;4956840;28;19919;-91
2022/01/20 12:28:02;;;;;;;;;;;;;;;2.00;73.08;100734.22;4956118;28;20369;-90
2022/01/20 12:30:27;;;;;;;;;;;;;;;2.04;73.03;100735.09;4956459;28;19918;-89
2022/01/20 12:33:00;;;;;;;;;;;;;;;2.02;72.62;100734.22;4939337;28;20374;-91
2022/01/20 12:35:33;;;;;;;;;;;;;;;2.04;72.52;100732.47;4956462;28;19937;-90
2022/01/20 12:37:58;;;;;;;;;;;;;;;2.06;72.63;100735.13;4938732;28;19919;-90
2022/01/20 12:40:24;;;;;;;;;;;;;;;2.05;72.71;100717.69;4939286;29;19932;-87
2022/01/20 12:42:49;;;;;;;;;;;;;;;2.12;72.96;100728.22;4956567;28;19922;-90
2022/01/20 12:48:10;;;;;;;;;;;;;;;2.18;72.55;100719.50;4956362;28;19946;-92
2022/01/20 12:50:35;;;;;;;;;;;;;;;2.27;73.66;100730.03;4955494;28;20274;-88
2022/01/20 12:53:01;;;;;;;;;;;;;;;2.63;76.93;100725.00;4954981;28;20013;-88
2022/01/20 12:55:26;;;;;;;;;;;;;;;2.69;78.73;100727.63;4956118;28;19965;-88
2022/01/20 12:57:59;;;;;;;;;;;;;;;2.76;81.10;100739.00;4938872;28;19918;-89
2022/01/20 13:00:24;;;;;;;;;;;;;;;2.79;83.19;100732.03;4956050;28;19973;-88
2022/01/20 13:02:50;;;;;;;;;;;;;;;2.79;84.63;100739.00;4955917;28;20350;-90
2022/01/20 13:05:16;;;;;;;;;;;;;;;2.81;86.00;100732.03;4945129;29;19919;-88
2022/01/20 13:07:41;;;;;;;;;;;;;;;2.84;87.21;100732.94;4937727;29;19929;-87
2022/01/20 13:10:20;;;;;;;;;;;;;;;2.81;88.29;100724.19;4938730;28;19918;-88
2022/01/20 13:12:46;;;;;;;;;;;;;;;2.84;89.76;100721.59;4956667;28;19918;-90
2022/01/20 13:15:23;;;;;;;;;;;;;;;2.83;90.74;100722.47;4938339;29;20408;-91
2022/01/20 13:17:59;;;;;;;;;;;;;;;2.84;92.29;100722.47;4938426;29;20009;-94
2022/01/20 13:20:24;;;;;;;;;;;;;;;2.82;94.10;100718.09;4955402;28;19918;-89
2022/01/20 13:22:59;;;;;;;;;;;;;;;3.00;96.42;100718.16;4952536;28;20022;-91
2022/01/20 13:25:29;;;;;;;;;;;;;;;3.24;99.01;100706.00;4937995;29;19922;-89
2022/01/20 13:27:59;;;;;;;;;;;;;;;3.42;100.00;100711.25;4938036;29;19919;-89
2022/01/20 13:30:42;;;;;;;;;;;;;;;3.57;100.00;100712.13;4937743;29;19929;-93
2022/01/20 13:33:14;;;;;;;;;;;;;;;3.69;100.00;100716.53;4955086;28;20374;-90
2022/01/20 13:35:41;;;;;;;;;;;;;;;3.79;100.00;100710.41;4939178;29;19926;-88
2022/01/20 13:38:08;;;;;;;;;;;;;;;3.86;100.00;100708.66;4945569;28;19925;-92
2022/01/20 13:40:33;;;;;;;;;;;;;;;3.92;100.00;100706.03;4974404;28;20392;-92
2022/01/20 13:45:42;;;;;;;;;;;;;;;4.06;100.00;100714.75;4975395;28;19938;-95
2022/01/20 13:48:08;;;;;;;;;;;;;;;4.11;100.00;100718.22;4956598;28;19922;-94
2022/01/20 13:50:39;;;;;;;;;;;;;;;4.18;100.00;100719.13;4958334;28;19973;-94
2022/01/20 13:53:15;;;;;;;;;;;;;;;4.27;100.00;100720.84;4956991;28;20382;-93
2022/01/20 13:55:47;;;;;;;;;;;;;;;4.29;100.00;100721.69;4975143;28;20281;-94
2022/01/20 13:58:22;;;;;;;;;;;;;;;4.35;100.00;100729.56;4974349;28;19922;-87
2022/01/20 14:00:48;;;;;;;;;;;;;;;4.39;100.00;100730.41;4974897;28;19918;-93
2022/01/20 14:03:13;;;;;;;;;;;;;;;4.44;100.00;100734.78;4974898;28;19965;-87
2022/01/20 14:05:40;;;;;;;;;;;;;;;4.48;100.00;100736.53;4957455;28;19918;-92
2022/01/20 14:08:06;;;;;;;;;;;;;;;4.51;100.00;100743.50;4956193;28;19965;-88
2022/01/20 14:10:31;;;;;;;;;;;;;;;4.57;100.00;100748.75;4974760;28;19977;-93
2022/01/20 14:12:59;;;;;;;;;;;;;;;4.60;100.00;100754.00;4974888;28;19924;-92
2022/01/20 14:15:25;;;;;;;;;;;;;;;4.65;100.00;100751.34;4975287;28;19926;-89
2022/01/20 14:17:53;;;;;;;;;;;;;;;4.69;100.00;100758.31;4974638;28;19918;-93
2022/01/20 14:20:19;;;;;;;;;;;;;;;4.72;100.00;100759.22;4957045;28;20273;-93
2022/01/20 14:22:45;;;;;;;;;;;;;;;4.74;100.00;100769.72;4955035;28;20361;-88
2022/01/20 14:25:11;;;;;;;;;;;;;;;4.79;100.00;100770.56;4973307;28;19942;-91
2022/01/20 14:27:36;;;;;;;;;;;;;;;4.23;100.00;100787.28;4956691;28;20285;-89
2022/01/20 14:30:02;;;;;;;;;;;;;;;3.59;100.00;100781.16;4956307;28;19918;-92
2022/01/20 14:32:27;;;;;;;;;;;;;;;3.28;100.00;100784.56;4974388;28;19965;-91
2022/01/20 14:34:53;;;;;;;;;;;;;;;3.21;100.00;100774.97;4974462;28;19918;-89
2022/01/20 14:37:18;;;;;;;;;;;;;;;3.05;99.32;100774.03;4972655;28;19926;-88
2022/01/20 14:39:43;;;;;;;;;;;;;;;2.97;97.77;100765.28;4974058;28;19995;-93
2022/01/20 14:42:10;;;;;;;;;;;;;;;2.90;96.08;100767.00;4956377;28;20417;-88
2022/01/20 14:44:36;;;;;;;;;;;;;;;2.81;95.08;100769.59;4974002;28;19969;-92
2022/01/20 14:47:02;;;;;;;;;;;;;;;2.69;94.19;100761.66;4955518;28;19977;-89
2022/01/20 14:49:27;;;;;;;;;;;;;;;2.67;93.29;100779.09;4956589;28;19922;-88
2022/01/20 14:51:52;;;;;;;;;;;;;;;2.67;92.26;100776.50;4956555;28;20005;-88
2022/01/20 14:54:18;;;;;;;;;;;;;;;2.61;91.61;100785.16;4955116;28;20346;-87
2022/01/20 14:56:43;;;;;;;;;;;;;;;2.56;90.77;100780.78;4973630;28;19924;-88
2022/01/20 14:59:09;;;;;;;;;;;;;;;2.49;90.14;100782.47;4956373;28;19929;-88
2022/01/20 15:01:37;;;;;;;;;;;;;;;2.39;89.68;100786.78;4955696;28;20609;-89
2022/01/20 15:04:03;;;;;;;;;;;;;;;2.39;88.90;100783.28;4956100;28;19918;-89
2022/01/20 15:06:28;;;;;;;;;;;;;;;2.33;88.34;100787.63;4955758;28;19925;-87
2022/01/20 15:08:53;;;;;;;;;;;;;;;2.30;87.79;100790.22;4954980;28;19918;-88
2022/01/20 15:11:19;;;;;;;;;;;;;;;2.23;87.35;100800.63;4973450;28;20468;-91
2022/01/20 15:13:44;;;;;;;;;;;;;;;2.14;86.83;100797.06;4956305;28;19918;-89
2022/01/20 15:16:09;;;;;;;;;;;;;;;2.14;86.35;100784.00;4973244;28;19922;-88
2022/01/20 15:18:34;;;;;;;;;;;;;;;2.19;85.96;100799.72;4956134;28;19918;-88
2022/01/20 15:21:00;;;;;;;;;;;;;;;2.07;85.64;100807.47;4956115;28;20028;-89
2022/01/20 15:23:25;;;;;;;;;;;;;;;2.02;85.56;100811.78;4972244;28;19957;-91
2022/01/20 15:25:51;;;;;;;;;;;;;;;1.93;85.24;100807.34;4956080;28;19973;-90
2022/01/20 15:28:17;;;;;;;;;;;;;;;1.92;85.08;100818.69;4955581;28;19919;-87
2022/01/20 15:30:42;;;;;;;;;;;;;;;1.90;84.81;100818.66;4973682;28;19915;-91
2022/01/20 15:33:08;;;;;;;;;;;;;;;1.88;84.71;100819.50;4955843;28;20254;-91
2022/01/20 15:35:34;;;;;;;;;;;;;;;1.84;84.51;100818.59;4972939;28;20046;-91
2022/01/20 15:37:59;;;;;;;;;;;;;;;1.83;84.31;100813.38;4954567;28;20386;-90
2022/01/20 15:40:25;;;;;;;;;;;;;;;1.74;84.16;100807.19;4970563;28;20013;-92
2022/01/20 15:42:50;;;;;;;;;;;;;;;1.74;83.97;100815.03;4975943;28;19972;-88
2022/01/20 15:45:15;;;;;;;;;;;;;;;1.70;83.88;100815.84;4975331;28;20293;-91
2022/01/20 15:47:41;;;;;;;;;;;;;;;1.74;83.61;100816.75;4975646;28;19922;-89
2022/01/20 15:50:08;;;;;;;;;;;;;;;1.71;83.50;100815.00;4976380;28;20011;-88
2022/01/20 15:52:33;;;;;;;;;;;;;;;1.68;83.75;100819.31;4975535;28;20106;-91
2022/01/20 15:54:58;;;;;;;;;;;;;;;1.61;83.64;100821.88;4975303;28;20992;-90
2022/01/20 15:57:24;;;;;;;;;;;;;;;1.55;83.77;100815.72;4976157;28;19965;-91
2022/01/20 15:59:49;;;;;;;;;;;;;;;1.60;83.71;100814.88;4974518;28;19922;-88
2022/01/20 16:02:14;;;;;;;;;;;;;;;1.55;83.65;100819.19;4976194;28;19918;-90
2022/01/20 16:04:40;;;;;;;;;;;;;;;1.53;83.40;100818.31;4976292;28;19922;-88
2022/01/20 16:07:05;;;;;;;;;;;;;;;1.55;83.14;100820.94;4976284;28;19954;-88
2022/01/20 16:09:30;;;;;;;;;;;;;;;1.49;83.02;100819.13;4973964;28;19926;-91
2022/01/20 16:11:56;;;;;;;;;;;;;;;1.42;83.00;100814.69;4964982;28;19925;-90
2022/01/20 16:14:21;;;;;;;;;;;;;;;1.41;82.86;100818.16;4975127;28;19923;-88
2022/01/20 16:16:46;;;;;;;;;;;;;;;1.43;82.87;100822.53;4976243;28;19922;-88
2022/01/20 16:19:11;;;;;;;;;;;;;;;1.37;82.75;100816.38;4975999;28;19973;-89
2022/01/20 16:21:37;;;;;;;;;;;;;;;1.36;82.67;100828.56;4976271;28;20282;-89
2022/01/20 16:24:04;;;;;;;;;;;;;;;1.36;82.61;100831.19;4972423;28;19976;-88
2022/01/20 16:26:29;;;;;;;;;;;;;;;1.33;82.42;100831.13;4975657;28;20066;-88
2022/01/20 16:28:55;;;;;;;;;;;;;;;1.30;82.60;100835.47;4975844;28;19961;-88
2022/01/20 16:31:21;;;;;;;;;;;;;;;1.31;82.54;100839.81;4973879;28;19926;-87
2022/01/20 16:33:46;;;;;;;;;;;;;;;1.31;82.53;100850.25;4972711;28;19930;-87
2022/01/20 16:36:11;;;;;;;;;;;;;;;1.27;82.40;100857.16;4973525;28;19978;-87
2022/01/20 16:38:37;;;;;;;;;;;;;;;1.25;82.50;100857.16;4971517;28;19930;-88
2022/01/20 16:41:03;;;;;;;;;;;;;;;1.23;82.49;100858.00;4957209;28;19926;-87
2022/01/20 16:43:30;;;;;;;;;;;;;;;1.19;82.42;100867.53;4955653;28;19933;-88
2022/01/20 16:45:56;;;;;;;;;;;;;;;1.17;82.40;100869.25;4974343;28;19965;-91
2022/01/20 16:48:24;;;;;;;;;;;;;;;1.18;82.28;100867.50;4957443;28;20004;-86
2022/01/20 16:50:52;;;;;;;;;;;;;;;1.16;82.22;100864.88;4956448;28;19961;-88
2022/01/20 16:53:18;;;;;;;;;;;;;;;1.18;82.31;100867.50;4971900;28;19926;-88
2022/01/20 16:55:48;;;;;;;;;;;;;;;1.16;82.14;100864.88;4955899;28;20409;-89
2022/01/20 16:58:14;;;;;;;;;;;;;;;1.11;82.16;100863.06;4957370;28;19972;-88
2022/01/20 17:00:39;;;;;;;;;;;;;;;1.10;82.21;100867.41;4957317;28;19977;-89
2022/01/20 17:03:13;;;;;;;;;;;;;;;1.11;82.16;100877.00;4955789;28;19933;-90
2022/01/20 17:05:38;;;;;;;;;;;;;;;1.10;81.92;100883.06;4965325;28;20336;-91
2022/01/20 17:08:04;;;;;;;;;;;;;;;1.07;81.88;100888.28;4972745;28;19922;-87
2022/01/20 17:10:30;;;;;;;;;;;;;;;1.06;81.92;100894.34;4973486;28;20057;-88
2022/01/20 17:12:55;;;;;;;;;;;;;;;1.06;81.96;100904.78;4956429;28;19980;-88
2022/01/20 17:15:20;;;;;;;;;;;;;;;1.06;82.14;100915.22;4972469;28;19925;-87
2022/01/20 17:17:46;;;;;;;;;;;;;;;1.09;82.07;100910.03;4955522;28;19932;-88
2022/01/20 17:20:12;;;;;;;;;;;;;;;1.04;81.97;100915.19;4971245;28;19933;-89
2022/01/20 17:22:37;;;;;;;;;;;;;;;0.99;81.75;100921.19;4970618;28;19922;-89
2022/01/20 17:25:03;;;;;;;;;;;;;;;0.99;81.71;100921.19;4956365;28;19922;-90
2022/01/20 17:27:28;;;;;;;;;;;;;;;0.95;81.62;100922.88;4973892;28;19925;-87
2022/01/20 17:29:53;;;;;;;;;;;;;;;0.97;81.52;100923.78;4955321;28;20008;-88
2022/01/20 17:32:20;;;;;;;;;;;;;;;0.94;81.51;100922.88;4955793;28;20468;-87
2022/01/20 17:34:45;;;;;;;;;;;;;;;0.95;81.38;100916.81;4971791;28;19926;-87
2022/01/20 17:37:10;;;;;;;;;;;;;;;0.96;81.36;100918.53;4972390;28;19926;-89
2022/01/20 17:39:36;;;;;;;;;;;;;;;0.91;81.29;100915.88;4960639;28;19993;-87
2022/01/20 17:42:01;;;;;;;;;;;;;;;0.90;81.15;100924.56;4972288;28;19933;-90
2022/01/20 17:44:28;;;;;;;;;;;;;;;0.90;81.22;100927.16;4973483;28;19918;-89
2022/01/20 17:46:56;;;;;;;;;;;;;;;0.88;81.06;100931.50;4974029;28;19958;-90
2022/01/20 17:49:21;;;;;;;;;;;;;;;0.90;81.38;100922.81;4971346;28;19926;-89
2022/01/20 17:51:47;;;;;;;;;;;;;;;0.90;81.14;100914.97;4971492;28;19926;-87
2022/01/20 17:54:13;;;;;;;;;;;;;;;0.88;81.21;100915.84;4971718;28;20373;-89
2022/01/20 17:56:39;;;;;;;;;;;;;;;0.86;81.00;100923.66;4971498;28;19945;-87
2022/01/20 17:59:05;;;;;;;;;;;;;;;0.83;81.01;100920.09;4972649;28;19929;-90
2022/01/20 18:01:30;;;;;;;;;;;;;;;0.82;81.08;100921.84;4972387;28;19926;-89
2022/01/20 18:03:55;;;;;;;;;;;;;;;0.88;80.92;100931.50;4971938;28;19922;-87
2022/01/20 18:06:21;;;;;;;;;;;;;;;0.84;81.03;100930.56;4971404;28;19922;-88
2022/01/20 18:08:46;;;;;;;;;;;;;;;0.81;80.96;100942.69;4970708;28;19926;-88
2022/01/20 18:11:11;;;;;;;;;;;;;;;0.87;80.64;100945.38;4971181;28;19922;-87
2022/01/20 18:13:37;;;;;;;;;;;;;;;0.81;80.86;100942.69;4971604;28;20005;-91
2022/01/20 18:16:02;;;;;;;;;;;;;;;0.81;80.77;100946.16;4972429;28;20514;-90
2022/01/20 18:18:29;;;;;;;;;;;;;;;0.83;80.76;100944.47;4973130;28;19918;-91
2022/01/20 18:20:55;;;;;;;;;;;;;;;0.79;80.71;100933.97;4972674;28;19925;-90
2022/01/20 18:23:20;;;;;;;;;;;;;;;0.79;80.60;100942.66;4971992;28;19926;-90
2022/01/20 18:25:47;;;;;;;;;;;;;;;0.76;80.45;100947.81;4972619;28;19922;-91
2022/01/20 18:28:13;;;;;;;;;;;;;;;0.74;80.43;100951.28;4972113;28;19933;-91
2022/01/20 18:30:38;;;;;;;;;;;;;;;0.77;80.42;100953.94;4971422;28;19926;-89
2022/01/20 18:33:03;;;;;;;;;;;;;;;0.75;80.25;100950.41;4972437;28;19961;-90
2022/01/20 18:35:30;;;;;;;;;;;;;;;0.76;80.43;100942.59;4972954;28;19918;-91
2022/01/20 18:37:56;;;;;;;;;;;;;;;0.76;80.29;100957.41;4969500;28;20008;-88
2022/01/20 18:40:21;;;;;;;;;;;;;;;0.74;80.27;100952.16;4973661;28;20084;-88
2022/01/20 18:42:47;;;;;;;;;;;;;;;0.76;80.18;100954.78;4955458;28;19922;-91
2022/01/20 18:45:13;;;;;;;;;;;;;;;0.74;80.18;100957.38;4956032;28;20009;-89
2022/01/20 18:47:38;;;;;;;;;;;;;;;0.70;80.35;100952.94;4972201;28;19922;-87
2022/01/20 18:50:05;;;;;;;;;;;;;;;0.69;80.55;100946.84;4955074;28;19926;-88
2022/01/20 18:52:30;;;;;;;;;;;;;;;0.69;80.43;100946.84;4970387;28;19930;-89
2022/01/20 18:54:58;;;;;;;;;;;;;;;0.69;80.36;100943.38;4955471;28;19926;-90
2022/01/20 18:57:23;;;;;;;;;;;;;;;0.75;80.18;100942.59;4971978;28;19922;-87
2022/01/20 18:59:49;;;;;;;;;;;;;;;0.68;80.09;100946.84;4954300;28;19929;-89
2022/01/20 19:02:14;;;;;;;;;;;;;;;0.68;80.15;100952.91;4955629;28;19944;-87
2022/01/20 19:04:39;;;;;;;;;;;;;;;0.67;80.08;100948.56;4972135;28;19922;-89
2022/01/20 19:07:05;;;;;;;;;;;;;;;0.67;80.05;100947.66;4955101;28;19985;-87
2022/01/20 19:09:34;;;;;;;;;;;;;;;0.69;79.92;100938.16;4971232;28;20029;-87
2022/01/20 19:11:59;;;;;;;;;;;;;;;0.66;79.92;100943.31;4955161;28;19925;-90
2022/01/20 19:14:25;;;;;;;;;;;;;;;0.67;80.05;100952.88;4972308;28;20069;-91
2022/01/20 19:16:51;;;;;;;;;;;;;;;0.67;80.00;100948.56;4975436;28;19965;-88
2022/01/20 19:19:16;;;;;;;;;;;;;;;0.68;79.80;100947.69;4976583;28;20024;-90
2022/01/20 19:21:43;;;;;;;;;;;;;;;0.65;79.92;100946.78;4959082;28;20488;-89
2022/01/20 19:24:08;;;;;;;;;;;;;;;0.74;79.81;100948.66;4976016;28;19926;-87
2022/01/20 19:26:34;;;;;;;;;;;;;;;0.76;79.61;100946.97;4977565;28;19922;-91
2022/01/20 19:28:59;;;;;;;;;;;;;;;0.70;79.62;100947.72;4975183;28;19929;-92
2022/01/20 19:31:24;;;;;;;;;;;;;;;0.75;79.50;100940.88;4959599;28;20160;-90
2022/01/20 19:33:50;;;;;;;;;;;;;;;0.67;79.34;100952.88;4959253;28;19929;-88
2022/01/20 19:36:15;;;;;;;;;;;;;;;0.68;79.36;100952.03;4959484;28;19930;-89
2022/01/20 19:38:40;;;;;;;;;;;;;;;0.67;79.15;100959.00;4957666;28;20293;-88
2022/01/20 19:41:07;;;;;;;;;;;;;;;0.65;79.09;100958.09;4977552;28;20341;-90
2022/01/20 19:43:32;;;;;;;;;;;;;;;0.72;79.01;100967.78;4977020;28;19922;-87
2022/01/20 19:45:57;;;;;;;;;;;;;;;0.67;78.98;100971.16;4959400;28;19928;-92
2022/01/20 19:48:23;;;;;;;;;;;;;;;0.69;78.93;100978.16;4958695;28;19918;-88
2022/01/20 19:50:48;;;;;;;;;;;;;;;0.71;78.85;100972.97;4959573;28;19932;-88
2022/01/20 19:53:16;;;;;;;;;;;;;;;0.75;78.52;100974.78;4974657;28;19918;-88
2022/01/20 19:55:42;;;;;;;;;;;;;;;0.74;78.38;100977.38;4976683;28;19929;-91
2022/01/20 19:58:07;;;;;;;;;;;;;;;0.70;78.28;100985.16;4977011;28;19972;-88
2022/01/20 20:00:32;;;;;;;;;;;;;;;0.72;78.26;100977.34;4959136;28;19925;-93
2022/01/20 20:02:58;;;;;;;;;;;;;;;0.80;78.13;100983.56;4958941;28;19945;-89
2022/01/20 20:05:23;;;;;;;;;;;;;;;0.77;78.15;100985.25;4959420;28;19926;-92
2022/01/20 20:07:49;;;;;;;;;;;;;;;0.76;78.30;100986.09;4974426;28;19926;-88
2022/01/20 20:10:16;;;;;;;;;;;;;;;0.78;78.19;100977.41;4957776;28;20008;-91
2022/01/20 20:12:41;;;;;;;;;;;;;;;0.82;77.93;100994.03;4976002;28;19940;-92
2022/01/20 20:15:08;;;;;;;;;;;;;;;0.74;78.00;101012.16;4958601;28;19918;-89
2022/01/20 20:17:33;;;;;;;;;;;;;;;0.78;77.93;101003.50;4958150;28;20045;-89
2022/01/20 20:19:58;;;;;;;;;;;;;;;0.79;77.77;101000.06;4975482;28;20352;-89